RA67502 UWKS-UWKS
Flight info
| Callsign | RA67502 |
|---|---|
| Flight time | 0h 33m |
| Altitude | 3000 |
| Route | 5610N04744E/KOKSHMARI 5607N04743E/PASAD 5552N04727E/CIVILSK 5558N04646E/MORGAUSHI 5602N04718E/KUGESI UWKS/24 |
| Aircraft | C172/L-SDGY/S |
Departure
| Time | 2026-04-28 18:43 |
|---|---|
| Airport | Cheboksary Airport (UWKS) |
Arrival
| Time | 2026-04-28 19:16 |
|---|---|
| Airport | Cheboksary Airport (UWKS) |
| Time | Latitude | Longitude | Altitude | Speed | Heading |
|---|---|---|---|---|---|
| 2026-04-28 18:42 | 55.92462 | 47.49242 | 2459 ft | 59 kts | 221° |
| 2026-04-28 18:43 | 55.92129 | 47.48799 | 2301 ft | 60 kts | 221° |
| 2026-04-28 18:43 | 55.91893 | 47.48481 | 2188 ft | 60 kts | 221° |
| 2026-04-28 18:43 | 55.91553 | 47.48026 | 2047 ft | 61 kts | 220° |
| 2026-04-28 18:43 | 55.91231 | 47.47591 | 1991 ft | 53 kts | 220° |
| 2026-04-28 18:44 | 55.90958 | 47.47223 | 2003 ft | 45 kts | 220° |
| 2026-04-28 18:44 | 55.90465 | 47.46568 | 1994 ft | 46 kts | 219° |
| 2026-04-28 18:44 | 55.90203 | 47.46225 | 1984 ft | 47 kts | 219° |
| 2026-04-28 18:45 | 55.89934 | 47.45874 | 1985 ft | 47 kts | 219° |
| 2026-04-28 18:45 | 55.89668 | 47.45526 | 1982 ft | 47 kts | 219° |
| 2026-04-28 18:45 | 55.89409 | 47.45168 | 1975 ft | 46 kts | 224° |
| 2026-04-28 18:45 | 55.89322 | 47.44559 | 1985 ft | 61 kts | 263° |
| 2026-04-28 18:46 | 55.89521 | 47.43778 | 1983 ft | 75 kts | 278° |
| 2026-04-28 18:46 | 55.89711 | 47.42926 | 1973 ft | 73 kts | 270° |
| 2026-04-28 18:46 | 55.89853 | 47.42028 | 1974 ft | 75 kts | 269° |
| 2026-04-28 18:46 | 55.89986 | 47.41126 | 1973 ft | 76 kts | 269° |
| 2026-04-28 18:47 | 55.90102 | 47.40192 | 1981 ft | 75 kts | 262° |
| 2026-04-28 18:47 | 55.90123 | 47.39270 | 1973 ft | 74 kts | 258° |
| 2026-04-28 18:47 | 55.90128 | 47.38345 | 1971 ft | 75 kts | 258° |
| 2026-04-28 18:47 | 55.90128 | 47.37411 | 1970 ft | 74 kts | 258° |
| 2026-04-28 18:48 | 55.90091 | 47.36524 | 1966 ft | 70 kts | 253° |
| 2026-04-28 18:48 | 55.90044 | 47.35657 | 1970 ft | 70 kts | 253° |
| 2026-04-28 18:48 | 55.89996 | 47.34801 | 1977 ft | 69 kts | 252° |
| 2026-04-28 18:48 | 55.89948 | 47.33946 | 1975 ft | 69 kts | 252° |
| 2026-04-28 18:49 | 55.89904 | 47.33087 | 1976 ft | 67 kts | 252° |
| 2026-04-28 18:49 | 55.89891 | 47.32814 | 1980 ft | 66 kts | 252° |
| 2026-04-28 18:49 | 55.89831 | 47.31472 | 1984 ft | 64 kts | 252° |
| 2026-04-28 18:49 | 55.89820 | 47.31208 | 1982 ft | 64 kts | 253° |
| 2026-04-28 18:50 | 55.89757 | 47.29879 | 1993 ft | 65 kts | 252° |
| 2026-04-28 18:50 | 55.89716 | 47.29062 | 1993 ft | 66 kts | 252° |
| 2026-04-28 18:50 | 55.89672 | 47.28237 | 1993 ft | 66 kts | 251° |
| 2026-04-28 18:50 | 55.89645 | 47.27695 | 1983 ft | 67 kts | 252° |
| 2026-04-28 18:51 | 55.89587 | 47.26595 | 1977 ft | 66 kts | 252° |
| 2026-04-28 18:51 | 55.89546 | 47.25780 | 1973 ft | 65 kts | 253° |
| 2026-04-28 18:51 | 55.89550 | 47.24962 | 1975 ft | 65 kts | 258° |
| 2026-04-28 18:51 | 55.89576 | 47.24157 | 1975 ft | 65 kts | 260° |
| 2026-04-28 18:52 | 55.89603 | 47.23359 | 1986 ft | 64 kts | 259° |
| 2026-04-28 18:52 | 55.89630 | 47.22559 | 1986 ft | 65 kts | 259° |
| 2026-04-28 18:52 | 55.89650 | 47.22013 | 1982 ft | 66 kts | 261° |
| 2026-04-28 18:52 | 55.89757 | 47.20899 | 1987 ft | 69 kts | 265° |
| 2026-04-28 18:53 | 55.89851 | 47.20056 | 1991 ft | 70 kts | 266° |
| 2026-04-28 18:53 | 55.89947 | 47.19185 | 1995 ft | 71 kts | 265° |
| 2026-04-28 18:53 | 55.90041 | 47.18315 | 1993 ft | 72 kts | 265° |
| 2026-04-28 18:53 | 55.90134 | 47.17427 | 1988 ft | 73 kts | 264° |
| 2026-04-28 18:54 | 55.90242 | 47.16537 | 1983 ft | 75 kts | 271° |
| 2026-04-28 18:54 | 55.90439 | 47.15653 | 1985 ft | 77 kts | 276° |
| 2026-04-28 18:54 | 55.90651 | 47.14764 | 1977 ft | 77 kts | 276° |
| 2026-04-28 18:54 | 55.90857 | 47.13894 | 1985 ft | 76 kts | 277° |
| 2026-04-28 18:55 | 55.91062 | 47.13020 | 1987 ft | 77 kts | 277° |
| 2026-04-28 18:55 | 55.91197 | 47.12435 | 1988 ft | 77 kts | 277° |
| 2026-04-28 18:55 | 55.91468 | 47.11264 | 1985 ft | 76 kts | 277° |
| 2026-04-28 18:55 | 55.91671 | 47.10384 | 1981 ft | 76 kts | 276° |
| 2026-04-28 18:56 | 55.91875 | 47.09513 | 1976 ft | 76 kts | 276° |
| 2026-04-28 18:56 | 55.92084 | 47.08637 | 1980 ft | 75 kts | 277° |
| 2026-04-28 18:56 | 55.92287 | 47.07782 | 1983 ft | 74 kts | 275° |
| 2026-04-28 18:56 | 55.92480 | 47.06914 | 1980 ft | 74 kts | 275° |
| 2026-04-28 18:57 | 55.92671 | 47.06061 | 1976 ft | 74 kts | 275° |
| 2026-04-28 18:57 | 55.92860 | 47.05200 | 1966 ft | 76 kts | 275° |
| 2026-04-28 18:57 | 55.93048 | 47.04305 | 1957 ft | 76 kts | 275° |
| 2026-04-28 18:57 | 55.93111 | 47.04013 | 1961 ft | 76 kts | 275° |
| 2026-04-28 18:58 | 55.93414 | 47.02546 | 1960 ft | 76 kts | 274° |
| 2026-04-28 18:58 | 55.93594 | 47.01658 | 1971 ft | 76 kts | 275° |
| 2026-04-28 18:58 | 55.93777 | 47.00766 | 1974 ft | 77 kts | 275° |
| 2026-04-28 18:58 | 55.93959 | 46.99868 | 1988 ft | 79 kts | 274° |
| 2026-04-28 18:59 | 55.94146 | 46.98918 | 1982 ft | 81 kts | 275° |
| 2026-04-28 18:59 | 55.94337 | 46.97953 | 1980 ft | 82 kts | 274° |
| 2026-04-28 18:59 | 55.94525 | 46.96981 | 1980 ft | 83 kts | 275° |
| 2026-04-28 18:59 | 55.94720 | 46.95972 | 1971 ft | 84 kts | 275° |
| 2026-04-28 19:00 | 55.94907 | 46.94986 | 1963 ft | 83 kts | 275° |
| 2026-04-28 19:00 | 55.95100 | 46.93993 | 1972 ft | 82 kts | 275° |
| 2026-04-28 19:00 | 55.95284 | 46.93029 | 1975 ft | 82 kts | 275° |
| 2026-04-28 19:00 | 55.95476 | 46.92068 | 1980 ft | 82 kts | 275° |
| 2026-04-28 19:01 | 55.95670 | 46.91105 | 1987 ft | 83 kts | 276° |
| 2026-04-28 19:01 | 55.95861 | 46.90125 | 1982 ft | 83 kts | 274° |
| 2026-04-28 19:01 | 55.96050 | 46.89154 | 1978 ft | 84 kts | 275° |
| 2026-04-28 19:01 | 55.96242 | 46.88151 | 1975 ft | 84 kts | 275° |
| 2026-04-28 19:02 | 55.96425 | 46.87161 | 1967 ft | 83 kts | 273° |
| 2026-04-28 19:02 | 55.96553 | 46.86171 | 1957 ft | 81 kts | 269° |
| 2026-04-28 19:02 | 55.96671 | 46.85188 | 1953 ft | 79 kts | 269° |
| 2026-04-28 19:02 | 55.96801 | 46.84235 | 1952 ft | 82 kts | 279° |
| 2026-04-28 19:03 | 55.97281 | 46.83504 | 1956 ft | 102 kts | 327° |
| 2026-04-28 19:03 | 55.98042 | 46.83514 | 1963 ft | 118 kts | 12° |
| 2026-04-28 19:03 | 55.98709 | 46.84394 | 1960 ft | 122 kts | 57° |
| 2026-04-28 19:03 | 55.99075 | 46.85735 | 1957 ft | 119 kts | 73° |
| 2026-04-28 19:04 | 55.99386 | 46.87117 | 1967 ft | 119 kts | 74° |
| 2026-04-28 19:04 | 55.99695 | 46.88504 | 1977 ft | 121 kts | 74° |
| 2026-04-28 19:04 | 55.99965 | 46.89944 | 1961 ft | 119 kts | 84° |
| 2026-04-28 19:04 | 56.00126 | 46.91378 | 1965 ft | 116 kts | 90° |
| 2026-04-28 19:05 | 56.00263 | 46.92821 | 1975 ft | 117 kts | 89° |
| 2026-04-28 19:05 | 56.00393 | 46.94246 | 1977 ft | 117 kts | 89° |
| 2026-04-28 19:05 | 56.00529 | 46.95696 | 1969 ft | 117 kts | 89° |
| 2026-04-28 19:05 | 56.00669 | 46.97127 | 1978 ft | 117 kts | 89° |
| 2026-04-28 19:06 | 56.00805 | 46.98551 | 1972 ft | 117 kts | 90° |
| 2026-04-28 19:06 | 56.00897 | 46.99506 | 1968 ft | 117 kts | 91° |
| 2026-04-28 19:06 | 56.01078 | 47.01438 | 1956 ft | 117 kts | 90° |
| 2026-04-28 19:06 | 56.01210 | 47.02858 | 1968 ft | 116 kts | 90° |
| 2026-04-28 19:07 | 56.01342 | 47.04285 | 1967 ft | 117 kts | 89° |
| 2026-04-28 19:07 | 56.01474 | 47.05714 | 1970 ft | 116 kts | 89° |
| 2026-04-28 19:07 | 56.01611 | 47.07135 | 1970 ft | 116 kts | 89° |
| 2026-04-28 19:07 | 56.01749 | 47.08558 | 1967 ft | 115 kts | 89° |
| 2026-04-28 19:08 | 56.01886 | 47.09969 | 1972 ft | 115 kts | 89° |
| 2026-04-28 19:08 | 56.02027 | 47.11388 | 1966 ft | 116 kts | 90° |
| 2026-04-28 19:08 | 56.02168 | 47.12821 | 1964 ft | 116 kts | 90° |
| 2026-04-28 19:08 | 56.02310 | 47.14259 | 1962 ft | 116 kts | 90° |
| 2026-04-28 19:09 | 56.02448 | 47.15662 | 1964 ft | 115 kts | 90° |
| 2026-04-28 19:09 | 56.02589 | 47.17070 | 1973 ft | 115 kts | 89° |
| 2026-04-28 19:09 | 56.02731 | 47.18497 | 1974 ft | 115 kts | 89° |
| 2026-04-28 19:09 | 56.02870 | 47.19904 | 1984 ft | 115 kts | 90° |
| 2026-04-28 19:10 | 56.03012 | 47.21319 | 1979 ft | 116 kts | 90° |
| 2026-04-28 19:10 | 56.03149 | 47.22729 | 1996 ft | 115 kts | 90° |
| 2026-04-28 19:10 | 56.03286 | 47.24152 | 1986 ft | 116 kts | 90° |
| 2026-04-28 19:10 | 56.03423 | 47.25576 | 1984 ft | 116 kts | 90° |
| 2026-04-28 19:11 | 56.03559 | 47.26984 | 1985 ft | 116 kts | 89° |
| 2026-04-28 19:11 | 56.03696 | 47.28411 | 1989 ft | 117 kts | 89° |
| 2026-04-28 19:11 | 56.03833 | 47.29853 | 1987 ft | 117 kts | 90° |
| 2026-04-28 19:11 | 56.03970 | 47.31282 | 1994 ft | 116 kts | 89° |
| 2026-04-28 19:12 | 56.04257 | 47.32661 | 1990 ft | 122 kts | 56° |
| 2026-04-28 19:12 | 56.04806 | 47.33812 | 1990 ft | 122 kts | 50° |
| 2026-04-28 19:12 | 56.05368 | 47.34985 | 1981 ft | 122 kts | 50° |
| 2026-04-28 19:12 | 56.05912 | 47.36127 | 1995 ft | 122 kts | 51° |
| 2026-04-28 19:13 | 56.06467 | 47.37292 | 1981 ft | 122 kts | 51° |
| 2026-04-28 19:13 | 56.07019 | 47.38454 | 1979 ft | 122 kts | 51° |
| 2026-04-28 19:13 | 56.07562 | 47.39555 | 1991 ft | 119 kts | 51° |
| 2026-04-28 19:13 | 56.08057 | 47.40721 | 1937 ft | 114 kts | 57° |
| 2026-04-28 19:14 | 56.08572 | 47.41808 | 1710 ft | 116 kts | 40° |
| 2026-04-28 19:14 | 56.09206 | 47.42533 | 1566 ft | 101 kts | 24° |
| 2026-04-28 19:14 | 56.09814 | 47.42621 | 1512 ft | 82 kts | 335° |
| 2026-04-28 19:14 | 56.10313 | 47.42173 | 1357 ft | 83 kts | 300° |
| 2026-04-28 19:15 | 56.10524 | 47.41323 | 1284 ft | 69 kts | 250° |
| 2026-04-28 19:15 | 56.10354 | 47.40562 | 1165 ft | 65 kts | 246° |
| 2026-04-28 19:15 | 56.10183 | 47.39849 | 1057 ft | 61 kts | 235° |
| 2026-04-28 19:15 | 56.10035 | 47.39389 | 957 ft | 66 kts | 237° |
| 2026-04-28 19:16 | 56.09742 | 47.38435 | 877 ft | 68 kts | 240° |
| 2026-04-28 19:16 | 56.09576 | 47.37667 | 722 ft | 64 kts | 244° |
| 2026-04-28 19:16 | 56.09441 | 47.36971 | 602 ft | 52 kts | 245° |
| 2026-04-28 19:16 | 56.09336 | 47.36405 | 527 ft | 43 kts | 247° |
| 2026-04-28 19:17 | 56.09259 | 47.35990 | 537 ft | 39 kts | 249° |
| 2026-04-28 19:17 | 56.09153 | 47.35402 | 562 ft | 48 kts | 243° |
| 2026-04-28 19:17 | 56.09056 | 47.34889 | 548 ft | 37 kts | 250° |
| 2026-04-28 19:17 | 56.08981 | 47.34473 | 546 ft | 30 kts | 251° |
| 2026-04-28 19:18 | 56.08917 | 47.34123 | 547 ft | 32 kts | 250° |
| 2026-04-28 19:18 | 56.08854 | 47.33774 | 550 ft | 28 kts | 249° |
| 2026-04-28 19:18 | 56.08789 | 47.33426 | 554 ft | 29 kts | 250° |
| 2026-04-28 19:18 | 56.08725 | 47.33064 | 556 ft | 29 kts | 248° |
| 2026-04-28 19:19 | 56.08643 | 47.32825 | 557 ft | 17 kts | 232° |
| 2026-04-28 19:19 | 56.08593 | 47.32698 | 559 ft | 8 kts | 233° |
| 2026-04-28 19:19 | 56.08574 | 47.32653 | 560 ft | 0 kts | 228° |
| 2026-04-28 19:19 | 56.08569 | 47.32642 | 560 ft | 5 kts | 234° |
| 2026-04-28 19:20 | 56.08525 | 47.32531 | 563 ft | 13 kts | 234° |
| 2026-04-28 19:20 | 56.08485 | 47.32426 | 565 ft | 12 kts | 238° |
| 2026-04-28 19:20 | 56.08426 | 47.32285 | 566 ft | 11 kts | 223° |
| 2026-04-28 19:20 | 56.08381 | 47.32203 | 566 ft | 10 kts | 219° |
| 2026-04-28 19:21 | 56.08328 | 47.32125 | 567 ft | 6 kts | 255° |
| 2026-04-28 19:21 | 56.08324 | 47.32079 | 568 ft | 0 kts | 257° |